Time;durP1;ratioP1;P1;durP2;ratioP2;P2;SDS_P1;SDS_P2;PMS_P1;PMS_P2;Temp;Humidity;BMP_temperature;BMP_pressure;BME280_temperature;BME280_humidity;BME280_pressure;Samples;Min_cycle;Max_cycle;Signal;HPM_P1;HPM_P2
2021/12/14 00:01:44;;;;;;;29.20;24.80;;;5.20;80.70;;;;;;10870660;32;20328;-75
2021/12/14 00:07:46;;;;;;;36.30;26.40;;;5.20;80.70;;;;;;10869976;32;20031;-75
2021/12/14 00:13:59;;;;;;;30.12;24.00;;;5.20;80.70;;;;;;10856137;32;20028;-75
2021/12/14 00:20:10;;;;;;;50.92;36.00;;;5.20;80.60;;;;;;10865960;32;20082;-75
2021/12/14 00:26:14;;;;;;;35.42;27.73;;;5.20;80.60;;;;;;10867644;32;20058;-75
2021/12/14 00:32:20;;;;;;;36.17;28.67;;;5.20;80.70;;;;;;10851392;32;20028;-75
2021/12/14 00:38:22;;;;;;;35.78;28.05;;;5.00;80.60;;;;;;10867412;32;20047;-75
2021/12/14 00:44:25;;;;;;;27.98;21.98;;;4.80;81.10;;;;;;10866768;32;20019;-75
2021/12/14 00:50:30;;;;;;;26.30;21.15;;;4.90;81.00;;;;;;10865771;32;20020;-75
2021/12/14 00:56:33;;;;;;;36.00;28.33;;;4.90;80.90;;;;;;10865583;32;20043;-75
2021/12/14 01:02:36;;;;;;;30.90;24.92;;;4.70;81.10;;;;;;10846915;32;20380;-75
2021/12/14 01:08:42;;;;;;;39.80;34.42;;;4.80;81.20;;;;;;10861951;32;20016;-75
2021/12/14 01:14:59;;;;;;;32.08;25.20;;;4.80;81.10;;;;;;10862159;32;20423;-75
2021/12/14 01:21:16;;;;;;;34.70;27.08;;;4.80;81.00;;;;;;10864420;32;20051;-75
2021/12/14 01:27:24;;;;;;;33.45;24.42;;;4.70;81.10;;;;;;10864047;32;20032;-75
2021/12/14 01:33:28;;;;;;;33.33;26.27;;;4.70;81.20;;;;;;10863812;32;20097;-75
2021/12/14 01:45:40;;;;;;;27.90;23.43;;;4.50;81.30;;;;;;10841627;27;20024;-75
2021/12/14 01:51:45;;;;;;;35.17;26.50;;;4.60;81.20;;;;;;10826131;33;20340;-75
2021/12/14 01:57:48;;;;;;;27.30;22.50;;;4.70;81.00;;;;;;10825727;33;20028;-75
2021/12/14 02:04:07;;;;;;;31.25;25.20;;;4.70;80.80;;;;;;10825548;32;20028;-75
2021/12/14 02:10:21;;;;;;;31.73;23.77;;;4.70;80.80;;;;;;10825481;32;20023;-75
2021/12/14 02:16:24;;;;;;;41.13;31.20;;;4.60;80.90;;;;;;10825572;32;20012;-75
2021/12/14 02:22:27;;;;;;;30.52;23.30;;;4.50;81.00;;;;;;10822612;33;20042;-75
2021/12/14 02:28:29;;;;;;;39.13;29.87;;;4.60;81.40;;;;;;10825057;33;20429;-75
2021/12/14 02:34:42;;;;;;;31.77;24.95;;;4.60;82.00;;;;;;10824895;32;20067;-75
2021/12/14 02:41:01;;;;;;;28.42;23.30;;;4.50;81.80;;;;;;10824810;32;20356;-75
2021/12/14 02:47:12;;;;;;;27.35;21.85;;;4.40;81.90;;;;;;10824584;33;20028;-75
2021/12/14 02:53:15;;;;;;;33.33;27.75;;;4.30;81.80;;;;;;10824506;32;20038;-75
2021/12/14 02:59:21;;;;;;;35.42;28.80;;;4.30;81.70;;;;;;10824402;33;20055;-75
2021/12/14 03:05:28;;;;;;;29.98;24.42;;;4.40;81.70;;;;;;10820846;32;20040;-75
2021/12/14 03:11:31;;;;;;;28.05;24.95;;;4.40;82.10;;;;;;10824122;33;20032;-75
2021/12/14 03:17:34;;;;;;;32.05;26.52;;;4.30;82.00;;;;;;10822116;32;20047;-70
2021/12/14 03:23:43;;;;;;;28.42;24.75;;;4.30;82.20;;;;;;10823640;32;20032;-70
2021/12/14 03:29:45;;;;;;;27.85;22.02;;;4.20;82.10;;;;;;10829141;33;20032;-70
2021/12/14 03:36:03;;;;;;;31.58;25.23;;;4.20;81.90;;;;;;10829930;33;20024;-70
2021/12/14 03:42:17;;;;;;;36.22;28.23;;;4.20;81.80;;;;;;10829751;32;20325;-70
2021/12/14 03:48:27;;;;;;;31.75;24.65;;;4.20;81.70;;;;;;10828600;33;20066;-70
2021/12/14 03:54:30;;;;;;;30.05;25.90;;;4.20;81.60;;;;;;10828465;33;20020;-70
2021/12/14 04:00:55;;;;;;;30.40;26.42;;;4.10;81.60;;;;;;10829258;33;20060;-70
2021/12/14 04:06:59;;;;;;;28.30;25.23;;;4.00;81.60;;;;;;10828913;32;20050;-70
2021/12/14 04:13:04;;;;;;;35.33;31.35;;;3.90;81.80;;;;;;10828079;33;20077;-70
2021/12/14 04:19:10;;;;;;;26.95;22.98;;;3.90;81.80;;;;;;10828737;33;20046;-70
2021/12/14 04:25:12;;;;;;;31.58;24.12;;;3.90;81.70;;;;;;10828440;32;20043;-70
2021/12/14 04:31:19;;;;;;;28.25;22.62;;;3.90;81.60;;;;;;10828310;33;20024;-70
2021/12/14 04:37:22;;;;;;;32.42;22.85;;;3.70;81.70;;;;;;10823732;32;20086;-70
2021/12/14 04:56:10;;;;;;;26.17;22.05;;;3.80;81.70;;;;;;10827652;33;20042;-70
2021/12/14 05:02:17;;;;;;;28.70;21.77;;;3.80;81.50;;;;;;10827337;33;20020;-70
2021/12/14 05:14:27;;;;;;;27.10;21.67;;;3.80;81.40;;;;;;10826922;32;20287;-75
2021/12/14 05:20:29;;;;;;;39.80;29.23;;;3.90;81.10;;;;;;10826962;32;20356;-75
2021/12/14 05:26:32;;;;;;;37.22;27.45;;;3.80;81.30;;;;;;10826737;32;20094;-76
2021/12/14 05:32:35;;;;;;;38.38;32.45;;;3.90;81.20;;;;;;10826519;32;20059;-76
2021/12/14 05:38:52;;;;;;;40.05;29.23;;;4.10;81.00;;;;;;10826233;32;20032;-75
2021/12/14 05:44:56;;;;;;;35.63;27.42;;;4.10;80.90;;;;;;10825300;33;20108;-75
2021/12/14 05:51:03;;;;;;;48.78;37.78;;;3.60;80.80;;;;;;10825460;32;20208;-76
2021/12/14 05:57:11;;;;;;;43.83;39.15;;;3.80;81.70;;;;;;10825833;33;20024;-76
2021/12/14 06:03:17;;;;;;;48.38;42.13;;;4.20;81.30;;;;;;10825578;33;20024;-76
2021/12/14 06:09:28;;;;;;;50.75;34.47;;;4.40;80.70;;;;;;10825492;32;20419;-76
2021/12/14 06:15:32;;;;;;;31.58;26.95;;;4.50;80.30;;;;;;10827204;32;20032;-75
2021/12/14 06:21:35;;;;;;;35.75;29.45;;;4.60;80.60;;;;;;10825220;33;20347;-76
2021/12/14 06:27:38;;;;;;;42.38;31.85;;;4.60;80.30;;;;;;10824902;33;20032;-76
2021/12/14 06:33:41;;;;;;;40.45;26.35;;;4.40;80.40;;;;;;10791523;32;20024;-76
2021/12/14 06:40:17;;;;;;;46.55;37.55;;;4.50;80.50;;;;;;10787907;33;20348;-76
2021/12/14 06:46:26;;;;;;;41.55;33.92;;;4.50;80.30;;;;;;10787706;33;20043;-76
2021/12/14 06:52:30;;;;;;;41.58;35.40;;;4.70;80.10;;;;;;10783572;33;20024;-76
2021/12/14 06:58:57;;;;;;;36.53;30.08;;;4.80;80.00;;;;;;10788427;33;20050;-75
2021/12/14 07:05:00;;;;;;;48.20;32.92;;;4.80;79.30;;;;;;10789598;33;20029;-76
2021/12/14 07:11:03;;;;;;;53.47;42.25;;;4.40;79.80;;;;;;10793100;33;20020;-76
2021/12/14 07:17:18;;;;;;;51.17;43.35;;;4.60;79.70;;;;;;10798854;33;20340;-75
2021/12/14 07:23:28;;;;;;;37.10;29.48;;;4.80;79.30;;;;;;10830020;33;20328;-74
2021/12/14 07:29:31;;;;;;;45.45;35.20;;;4.90;78.80;;;;;;10829600;33;20423;-74
2021/12/14 07:35:35;;;;;;;43.85;32.35;;;4.70;79.30;;;;;;10821468;33;20061;-74
2021/12/14 07:41:45;;;;;;;54.55;44.78;;;4.70;79.20;;;;;;10810213;33;20025;-75
2021/12/14 07:48:13;;;;;;;46.72;37.75;;;4.40;79.70;;;;;;10795286;32;20032;-75
2021/12/14 07:54:22;;;;;;;36.47;31.40;;;4.70;80.10;;;;;;10791185;33;20336;-75
2021/12/14 08:00:29;;;;;;;41.67;33.37;;;4.90;79.60;;;;;;10819582;33;20050;-75
2021/12/14 08:06:45;;;;;;;52.42;41.63;;;4.80;79.60;;;;;;10824634;33;20059;-70
2021/12/14 08:12:50;;;;;;;50.17;41.83;;;4.90;80.30;;;;;;10828175;32;20024;-70
2021/12/14 08:18:53;;;;;;;39.65;32.08;;;5.20;80.20;;;;;;10828615;32;20060;-70
2021/12/14 08:24:56;;;;;;;48.20;36.20;;;5.00;79.80;;;;;;10827896;33;20054;-69
2021/12/14 08:31:05;;;;;;;56.10;40.88;;;4.70;80.40;;;;;;10823990;33;20317;-69
2021/12/14 08:37:37;;;;;;;43.65;33.00;;;4.80;81.30;;;;;;10828181;32;20028;-69
2021/12/14 08:44:26;;;;;;;43.00;36.28;;;5.10;81.10;;;;;;10827849;33;20039;-69
2021/12/14 08:50:41;;;;;;;39.30;30.35;;;5.30;81.50;;;;;;10827646;32;20020;-69
2021/12/14 08:56:54;;;;;;;33.92;26.60;;;5.70;81.40;;;;;;10823469;32;20098;-69
2021/12/14 09:03:00;;;;;;;35.33;28.83;;;5.90;81.30;;;;;;10827354;32;20024;-69
2021/12/14 09:09:15;;;;;;;35.65;29.08;;;5.90;81.60;;;;;;10826172;33;20064;-69
2021/12/14 09:15:27;;;;;;;40.50;33.22;;;6.20;81.70;;;;;;10826895;33;20011;-69
2021/12/14 09:21:35;;;;;;;40.33;32.25;;;6.50;81.50;;;;;;10825437;33;20047;-69
2021/12/14 09:27:38;;;;;;;38.63;31.52;;;6.60;81.20;;;;;;10825887;32;20028;-69
2021/12/14 09:33:42;;;;;;;41.03;32.13;;;6.70;81.50;;;;;;10826440;33;20070;-69
2021/12/14 09:39:49;;;;;;;29.70;25.62;;;6.80;81.70;;;;;;10826215;32;20054;-69
2021/12/14 09:45:59;;;;;;;34.70;28.73;;;6.90;81.80;;;;;;10631761;32;12179483;-70
2021/12/14 09:52:08;;;;;;;29.23;25.95;;;6.90;82.20;;;;;;10971069;32;20022;-68
2021/12/14 09:58:15;;;;;;;24.15;19.95;;;7.20;82.20;;;;;;10970121;32;20072;-70
2021/12/14 10:04:53;;;;;;;25.05;19.95;;;7.20;82.00;;;;;;10970359;32;20027;-70
2021/12/14 10:11:26;;;;;;;25.70;20.33;;;7.20;82.20;;;;;;10993046;32;20049;-70
2021/12/14 10:17:29;;;;;;;30.40;24.45;;;7.20;81.70;;;;;;11011849;32;20010;-70
2021/12/14 10:23:32;;;;;;;27.83;24.33;;;6.90;82.20;;;;;;11011545;32;20018;-70
2021/12/14 10:29:38;;;;;;;29.45;22.42;;;7.20;82.60;;;;;;11011301;32;20045;-70
2021/12/14 10:35:48;;;;;;;25.00;19.35;;;7.30;82.50;;;;;;10997336;32;20018;-68
2021/12/14 10:48:35;;;;;;;23.55;18.37;;;7.30;81.70;;;;;;11011838;32;20011;-70
2021/12/14 10:54:38;;;;;;;27.40;22.65;;;7.10;81.90;;;;;;10996295;32;20018;-70
2021/12/14 11:00:52;;;;;;;24.50;18.75;;;7.20;82.30;;;;;;10984639;32;20023;-70
2021/12/14 11:06:58;;;;;;;23.27;18.73;;;7.70;82.00;;;;;;10984478;32;20023;-70
2021/12/14 11:13:09;;;;;;;21.02;16.67;;;7.90;82.00;;;;;;10984319;32;20330;-70
2021/12/14 11:19:11;;;;;;;32.67;22.20;;;8.60;82.40;;;;;;10983956;32;20035;-68
2021/12/14 11:25:21;;;;;;;24.40;19.65;;;8.90;81.40;;;;;;10983987;32;20429;-70
2021/12/14 11:31:27;;;;;;;24.83;20.20;;;8.90;81.40;;;;;;10970382;32;20317;-70
2021/12/14 11:37:34;;;;;;;21.12;15.40;;;9.00;81.30;;;;;;10983425;32;20026;-70
2021/12/14 11:43:36;;;;;;;16.85;12.30;;;9.10;80.80;;;;;;10969365;32;20342;-70
2021/12/14 11:50:19;;;;;;;27.67;18.77;;;9.10;80.80;;;;;;10983437;32;20019;-70
2021/12/14 11:56:24;;;;;;;20.33;14.77;;;9.20;81.40;;;;;;10982722;32;20030;-70
2021/12/14 12:02:26;;;;;;;23.40;18.83;;;9.30;81.70;;;;;;10982489;32;20018;-70
2021/12/14 12:15:18;;;;;;;23.45;18.75;;;9.30;81.00;;;;;;10981341;32;20014;-70
2021/12/14 12:21:28;;;;;;;16.60;13.63;;;9.00;81.40;;;;;;10977488;32;20027;-70
2021/12/14 12:27:57;;;;;;;18.87;14.80;;;8.90;81.60;;;;;;10981506;32;20441;-75
2021/12/14 12:34:03;;;;;;;19.85;14.32;;;9.20;82.10;;;;;;10980902;32;20038;-75
2021/12/14 12:40:11;;;;;;;19.15;13.60;;;9.30;81.30;;;;;;10980774;32;20058;-75
2021/12/14 12:46:38;;;;;;;16.05;13.32;;;9.40;81.40;;;;;;10980786;32;20402;-75
2021/12/14 12:52:59;;;;;;;18.42;12.30;;;9.20;81.30;;;;;;10980512;32;20035;-75
2021/12/14 12:59:01;;;;;;;25.90;19.23;;;9.10;82.00;;;;;;10980304;32;20018;-75
2021/12/14 13:05:55;;;;;;;14.60;11.93;;;9.50;82.00;;;;;;10977350;32;20425;-74
2021/12/14 13:11:57;;;;;;;19.70;14.05;;;10.00;80.40;;;;;;10944066;32;20031;-74
2021/12/14 13:18:32;;;;;;;19.23;15.20;;;10.10;80.80;;;;;;10953218;32;20446;-75
2021/12/14 13:24:42;;;;;;;21.37;16.55;;;10.40;80.30;;;;;;10942172;32;20026;-74
2021/12/14 13:30:45;;;;;;;15.30;11.32;;;10.70;81.30;;;;;;10941930;32;20053;-74
2021/12/14 13:36:48;;;;;;;14.68;11.43;;;10.60;80.40;;;;;;10941798;32;20042;-74
2021/12/14 13:43:00;;;;;;;13.48;8.43;;;10.60;81.20;;;;;;10941514;32;20054;-74
2021/12/14 13:49:02;;;;;;;18.58;14.90;;;10.60;81.10;;;;;;10928274;32;20046;-74
2021/12/14 13:55:23;;;;;;;17.77;13.15;;;10.40;81.30;;;;;;10941474;32;20027;-74
2021/12/14 14:01:44;;;;;;;15.38;11.35;;;10.30;82.00;;;;;;10938754;32;20059;-75
2021/12/14 14:07:54;;;;;;;20.45;14.02;;;10.30;81.80;;;;;;10941336;32;20023;-75
2021/12/14 14:14:01;;;;;;;15.95;11.23;;;10.20;82.20;;;;;;10940709;32;20061;-74
2021/12/14 14:20:14;;;;;;;17.10;13.38;;;10.30;82.00;;;;;;10940494;32;20335;-74
2021/12/14 14:26:31;;;;;;;17.48;11.23;;;10.30;82.00;;;;;;10954329;32;20086;-75
2021/12/14 14:32:36;;;;;;;14.55;12.52;;;10.20;82.30;;;;;;10968542;32;20077;-74
2021/12/14 14:38:46;;;;;;;15.75;10.60;;;10.20;82.30;;;;;;10967240;32;20031;-74
2021/12/14 14:44:49;;;;;;;19.08;14.13;;;10.20;82.20;;;;;;10952262;32;20065;-75
2021/12/14 14:50:51;;;;;;;22.30;17.85;;;10.20;82.10;;;;;;10954246;32;20062;-70
2021/12/14 14:56:57;;;;;;;17.00;12.15;;;10.20;82.00;;;;;;10963159;32;20034;-70
2021/12/14 15:03:02;;;;;;;18.15;12.45;;;10.10;82.10;;;;;;10984054;32;20033;-69
2021/12/14 15:09:08;;;;;;;15.07;11.85;;;10.10;81.90;;;;;;10984343;32;20343;-69
2021/12/14 15:15:12;;;;;;;18.33;14.65;;;10.10;81.90;;;;;;10983457;32;20292;-69
2021/12/14 15:21:36;;;;;;;21.05;15.43;;;10.10;81.80;;;;;;10984350;32;20371;-69
2021/12/14 15:27:51;;;;;;;23.00;17.05;;;10.00;81.70;;;;;;10984083;32;20019;-69
2021/12/14 15:33:58;;;;;;;20.40;14.85;;;10.00;81.70;;;;;;10983603;32;20023;-69
2021/12/14 15:40:00;;;;;;;28.20;18.33;;;9.90;81.50;;;;;;10983585;32;20019;-69
2021/12/14 15:46:17;;;;;;;29.05;17.67;;;9.90;81.30;;;;;;10983213;32;20057;-69
2021/12/14 15:52:20;;;;;;;35.80;18.80;;;9.90;81.20;;;;;;10983109;32;20414;-69
2021/12/14 15:58:47;;;;;;;23.45;16.50;;;9.80;81.30;;;;;;10980937;32;20045;-69
2021/12/14 16:04:56;;;;;;;27.83;20.15;;;9.70;81.20;;;;;;10982426;32;20027;-69
2021/12/14 16:11:21;;;;;;;24.98;18.90;;;9.50;81.50;;;;;;10982402;32;20026;-69
2021/12/14 16:17:27;;;;;;;25.12;18.10;;;9.50;81.70;;;;;;10982161;32;20022;-69
2021/12/14 16:23:41;;;;;;;26.05;16.83;;;9.50;81.50;;;;;;10981450;32;20113;-69
2021/12/14 16:29:44;;;;;;;17.90;13.73;;;9.40;81.40;;;;;;10981507;32;20019;-69
2021/12/14 16:36:17;;;;;;;22.65;15.88;;;9.30;81.50;;;;;;10981416;32;20077;-69
2021/12/14 16:42:24;;;;;;;17.67;13.50;;;9.10;81.80;;;;;;10980948;32;20430;-69
2021/12/14 16:48:30;;;;;;;21.52;15.60;;;8.90;81.90;;;;;;10978637;32;20070;-69
2021/12/14 16:54:32;;;;;;;24.95;17.17;;;8.60;82.40;;;;;;10980301;32;20068;-69
2021/12/14 17:00:53;;;;;;;22.02;15.55;;;8.50;82.70;;;;;;10967112;32;20027;-69
2021/12/14 17:07:06;;;;;;;28.45;20.77;;;8.60;82.70;;;;;;10976089;32;20303;-69
2021/12/14 17:13:15;;;;;;;23.70;18.20;;;8.70;82.40;;;;;;10980465;32;20026;-69
2021/12/14 17:19:21;;;;;;;38.22;23.33;;;8.70;82.50;;;;;;10980090;32;20018;-69
2021/12/14 17:25:58;;;;;;;29.05;21.52;;;8.70;82.10;;;;;;10938647;32;20046;-69
2021/12/14 17:32:27;;;;;;;29.83;22.00;;;8.70;82.00;;;;;;10926039;32;20039;-69
2021/12/14 17:38:30;;;;;;;30.35;25.27;;;8.70;82.10;;;;;;10938722;32;20048;-69
2021/12/14 17:44:36;;;;;;;34.08;24.70;;;8.70;82.00;;;;;;10969708;27;20387;-69
2021/12/14 17:50:50;;;;;;;37.42;24.85;;;8.60;82.00;;;;;;10976052;32;20026;-69
2021/12/14 17:57:22;;;;;;;32.35;25.67;;;8.50;81.90;;;;;;10963563;32;20395;-69
2021/12/14 18:03:42;;;;;;;28.73;22.37;;;8.50;81.80;;;;;;10943613;32;20395;-69
2021/12/14 18:09:48;;;;;;;;;;;8.40;81.90;;;;;;10949465;32;20411;-69
2021/12/14 18:16:12;;;;;;;25.83;19.95;;;8.20;81.80;;;;;;10948935;32;20317;-69
2021/12/14 18:22:18;;;;;;;25.37;22.25;;;8.10;82.20;;;;;;10948356;32;20020;-69
2021/12/14 18:28:20;;;;;;;29.92;24.48;;;8.10;82.10;;;;;;10948393;32;20019;-70
2021/12/14 18:34:23;;;;;;;28.02;22.92;;;8.10;82.30;;;;;;10948078;32;20022;-69
2021/12/14 18:40:45;;;;;;;27.30;22.13;;;8.10;82.10;;;;;;10947878;32;20382;-70
2021/12/14 18:53:22;;;;;;;35.92;29.05;;;8.10;82.30;;;;;;10946067;32;20030;-69
2021/12/14 18:59:27;;;;;;;40.58;26.75;;;7.90;82.20;;;;;;10946217;32;20023;-69
2021/12/14 19:05:34;;;;;;;39.03;27.90;;;7.70;82.30;;;;;;10946685;32;20041;-69
2021/12/14 19:11:37;;;;;;;31.37;22.92;;;7.70;82.20;;;;;;10946680;32;20359;-69
2021/12/14 19:17:45;;;;;;;29.05;23.52;;;7.70;82.10;;;;;;10946111;32;20045;-69
2021/12/14 19:23:51;;;;;;;36.88;26.08;;;7.70;82.10;;;;;;10946368;32;20054;-69
2021/12/14 19:30:02;;;;;;;33.78;23.33;;;7.60;82.10;;;;;;10941743;32;20045;-69
2021/12/14 19:36:10;;;;;;;31.48;23.40;;;7.60;82.00;;;;;;10945833;32;20414;-69
2021/12/14 19:42:25;;;;;;;33.42;23.98;;;7.40;81.90;;;;;;10954063;32;20019;-69
2021/12/14 19:48:32;;;;;;;30.73;24.50;;;7.40;82.00;;;;;;10983082;32;20019;-69
2021/12/14 19:54:58;;;;;;;33.75;25.37;;;7.40;81.90;;;;;;10983004;32;20375;-69
2021/12/14 20:07:49;;;;;;;42.28;34.22;;;7.20;82.10;;;;;;10982573;32;20151;-69
2021/12/14 20:14:03;;;;;;;41.25;32.08;;;7.20;82.10;;;;;;10982215;32;20297;-69
2021/12/14 20:20:16;;;;;;;36.92;27.75;;;7.20;82.50;;;;;;10982112;32;20049;-69
2021/12/14 20:26:29;;;;;;;32.90;26.65;;;7.20;82.70;;;;;;10980961;32;20045;-69
2021/12/14 20:32:50;;;;;;;28.92;22.10;;;7.10;82.50;;;;;;10981637;32;20053;-69
2021/12/14 20:38:57;;;;;;;29.12;22.60;;;7.00;82.30;;;;;;10981259;32;20045;-69
2021/12/14 20:51:15;;;;;;;38.80;30.50;;;6.80;82.00;;;;;;10981457;32;20045;-69
2021/12/14 20:57:17;;;;;;;42.22;31.98;;;6.80;82.20;;;;;;10979373;32;20026;-69
2021/12/14 21:04:05;;;;;;;37.60;30.23;;;6.80;82.20;;;;;;10939499;32;20053;-69
2021/12/14 21:10:08;;;;;;;;;;;6.90;82.30;;;;;;10939108;32;20057;-69
2021/12/14 21:16:34;;;;;;;37.13;29.52;;;6.80;82.40;;;;;;10937911;32;19930;-69
2021/12/14 21:22:40;;;;;;;33.30;27.25;;;6.80;82.10;;;;;;10938313;32;20073;-69
2021/12/14 21:28:43;;;;;;;40.53;26.77;;;6.70;81.90;;;;;;10937546;32;20399;-69
2021/12/14 21:34:45;;;;;;;28.80;24.20;;;6.60;81.90;;;;;;10937883;32;20019;-69
2021/12/14 21:41:00;;;;;;;33.35;26.08;;;6.50;81.90;;;;;;10938405;32;20039;-69
2021/12/14 21:47:10;;;;;;;35.45;26.23;;;6.50;81.90;;;;;;10937613;32;20040;-69
2021/12/14 21:53:12;;;;;;;38.10;29.42;;;6.50;81.90;;;;;;10937565;32;20031;-69
2021/12/14 21:59:14;;;;;;;36.05;27.73;;;6.40;81.80;;;;;;10937365;32;20093;-69
2021/12/14 22:05:19;;;;;;;34.38;28.40;;;6.20;82.00;;;;;;10937127;32;20089;-69
2021/12/14 22:11:21;;;;;;;33.58;27.83;;;6.20;82.10;;;;;;10937199;32;20019;-69
2021/12/14 22:17:24;;;;;;;40.05;34.10;;;6.20;81.90;;;;;;10932769;32;20026;-69
2021/12/14 22:23:34;;;;;;;38.20;30.35;;;6.30;81.70;;;;;;10936826;32;20423;-69
2021/12/14 22:29:37;;;;;;;42.03;33.15;;;6.30;81.70;;;;;;10936769;32;20070;-69
2021/12/14 22:35:39;;;;;;;42.40;34.03;;;6.30;82.00;;;;;;10936627;32;20019;-69
2021/12/14 22:47:49;;;;;;;39.30;30.85;;;6.20;82.10;;;;;;10937268;32;20049;-69
2021/12/14 22:53:52;;;;;;;35.33;27.95;;;6.20;82.10;;;;;;10939566;32;20019;-69
2021/12/14 22:59:54;;;;;;;38.42;30.12;;;6.10;81.70;;;;;;10943322;32;20023;-69
2021/12/14 23:05:56;;;;;;;39.08;31.48;;;6.00;81.70;;;;;;10942949;32;20140;-69
2021/12/14 23:12:00;;;;;;;31.95;26.27;;;5.90;81.70;;;;;;10982138;32;20045;-69
2021/12/14 23:18:21;;;;;;;35.92;30.10;;;5.90;81.60;;;;;;10981152;32;20023;-69
2021/12/14 23:24:23;;;;;;;32.90;26.98;;;5.90;81.60;;;;;;10984182;32;20438;-69
2021/12/14 23:30:32;;;;;;;38.67;28.58;;;5.70;81.70;;;;;;10984034;32;20010;-75
2021/12/14 23:36:53;;;;;;;31.90;26.92;;;5.70;81.70;;;;;;10983739;32;20049;-75
2021/12/14 23:42:58;;;;;;;40.53;27.83;;;5.70;81.60;;;;;;10983547;32;20023;-75
2021/12/14 23:49:11;;;;;;;51.72;38.25;;;5.70;81.50;;;;;;10982592;32;20014;-75
2021/12/14 23:55:15;;;;;;;40.10;28.83;;;5.70;81.40;;;;;;10983190;32;20331;-75
